Strona główna
METAR-TAF:

METAR-TAF

Lotnisko :

Valence, Francja

Szerokość geograficzna: 44-54-58N, Długość geograficzna: 4-58-06E, wysokość: 160 m

Aktualna obserwacja pogody

Raport powstał 5 godziny i 9 minut temu, godzina 18:00 UTC
Wiatr 6 kt od północno-północny wschód
Temperatura 14°C
Wilgotność 51%
Ciśnienie 1027 hPa
Widzialność: 8000 m

METAR: LFLU 231800Z AUTO 02006KT 8000 NSC 14/04 Q1027

czas: 00:09 (23:09 UTC)


TAF: brakujący

Obserwacja i prognoza pogody dla ponad 4000 lotnisk (raport METAR i TAF).

Dostępne stacje oznaczono żółtymi i czerwonymi punktami na mapie.

Najedź kursorem aby zobaczyć nazwę stacji.

Kliknij aby zobaczyć obserwacje i prognozy pogody.

Aby zmienić mapę: kliknij na zielony przycisk z czarnym krzyżykiem, aby powiększyć; na zielony przycisk z myślnikiem, aby pomniejszyć; na zielone strzałki, aby przejść do map sąsiednich.


METAR-TAF: